sensor_id;sensor_type;location;lat;lon;timestamp;pressure;altitude;pressure_sealevel;temperature;humidity
64551;BME280;50945;44.472;-123.352;2023-07-09T00:01:37;99967.75;;;28.33;40.24
64551;BME280;50945;44.472;-123.352;2023-07-09T00:04:03;99963.91;;;28.43;40.10
64551;BME280;50945;44.472;-123.352;2023-07-09T00:06:29;99959.50;;;28.51;40.08
64551;BME280;50945;44.472;-123.352;2023-07-09T00:08:56;99959.44;;;28.56;40.00
64551;BME280;50945;44.472;-123.352;2023-07-09T00:11:22;99956.09;;;28.54;39.80
64551;BME280;50945;44.472;-123.352;2023-07-09T00:13:48;99960.88;;;28.53;39.59
64551;BME280;50945;44.472;-123.352;2023-07-09T00:16:23;99960.03;;;28.39;39.95
64551;BME280;50945;44.472;-123.352;2023-07-09T00:18:50;99955.97;;;28.17;40.14
64551;BME280;50945;44.472;-123.352;2023-07-09T00:21:17;99948.31;;;28.09;40.21
64551;BME280;50945;44.472;-123.352;2023-07-09T00:23:44;99946.72;;;28.03;40.35
64551;BME280;50945;44.472;-123.352;2023-07-09T00:26:14;99953.91;;;27.95;40.41
64551;BME280;50945;44.472;-123.352;2023-07-09T00:28:43;99950.53;;;27.79;40.38
64551;BME280;50945;44.472;-123.352;2023-07-09T00:31:14;99952.16;;;27.53;40.33
64551;BME280;50945;44.472;-123.352;2023-07-09T00:33:42;99944.47;;;27.25;40.60
64551;BME280;50945;44.472;-123.352;2023-07-09T00:36:27;99945.38;;;27.02;40.12
64551;BME280;50945;44.472;-123.352;2023-07-09T00:38:54;99952.22;;;26.77;41.48
64551;BME280;50945;44.472;-123.352;2023-07-09T00:41:25;99946.03;;;26.55;41.64
64551;BME280;50945;44.472;-123.352;2023-07-09T00:43:52;99953.69;;;26.26;41.77
64551;BME280;50945;44.472;-123.352;2023-07-09T00:49:06;99955.63;;;25.77;42.13
64551;BME280;50945;44.472;-123.352;2023-07-09T00:51:39;99951.34;;;25.60;42.70
64551;BME280;50945;44.472;-123.352;2023-07-09T00:54:26;99947.88;;;25.39;42.77
64551;BME280;50945;44.472;-123.352;2023-07-09T00:57:11;99951.41;;;25.16;43.01
64551;BME280;50945;44.472;-123.352;2023-07-09T00:59:39;99949.59;;;24.96;43.22
64551;BME280;50945;44.472;-123.352;2023-07-09T01:02:07;99945.22;;;24.84;43.33
64551;BME280;50945;44.472;-123.352;2023-07-09T01:04:34;99955.91;;;24.72;43.62
64551;BME280;50945;44.472;-123.352;2023-07-09T01:07:02;99948.72;;;24.61;43.66
64551;BME280;50945;44.472;-123.352;2023-07-09T01:09:28;99950.13;;;24.53;43.75
64551;BME280;50945;44.472;-123.352;2023-07-09T01:11:54;99952.72;;;24.39;43.78
64551;BME280;50945;44.472;-123.352;2023-07-09T01:14:22;99955.56;;;24.29;43.76
64551;BME280;50945;44.472;-123.352;2023-07-09T01:17:00;99956.16;;;24.16;44.24
64551;BME280;50945;44.472;-123.352;2023-07-09T01:19:30;99957.31;;;24.04;43.96
64551;BME280;50945;44.472;-123.352;2023-07-09T01:22:13;99952.91;;;23.93;44.43
64551;BME280;50945;44.472;-123.352;2023-07-09T01:27:25;99951.50;;;23.85;44.57
64551;BME280;50945;44.472;-123.352;2023-07-09T01:29:53;99953.44;;;23.75;44.56
64551;BME280;50945;44.472;-123.352;2023-07-09T01:32:20;99956.25;;;23.64;44.63
64551;BME280;50945;44.472;-123.352;2023-07-09T01:34:51;99949.84;;;23.48;44.78
64551;BME280;50945;44.472;-123.352;2023-07-09T01:37:23;99960.47;;;23.36;45.07
64551;BME280;50945;44.472;-123.352;2023-07-09T01:39:50;99957.69;;;23.26;45.14
64551;BME280;50945;44.472;-123.352;2023-07-09T01:42:18;99952.94;;;23.16;45.32
64551;BME280;50945;44.472;-123.352;2023-07-09T01:44:48;99953.50;;;23.08;45.46
64551;BME280;50945;44.472;-123.352;2023-07-09T01:47:16;99957.91;;;22.98;45.44
64551;BME280;50945;44.472;-123.352;2023-07-09T01:49:43;99959.56;;;22.89;45.63
64551;BME280;50945;44.472;-123.352;2023-07-09T01:52:14;99957.63;;;22.85;45.81
64551;BME280;50945;44.472;-123.352;2023-07-09T01:54:42;99955.13;;;22.83;45.83
64551;BME280;50945;44.472;-123.352;2023-07-09T01:57:22;99963.72;;;22.76;45.97
64551;BME280;50945;44.472;-123.352;2023-07-09T01:59:53;99967.91;;;22.69;46.05
64551;BME280;50945;44.472;-123.352;2023-07-09T02:02:23;99975.97;;;22.60;46.25
64551;BME280;50945;44.472;-123.352;2023-07-09T02:04:55;99981.78;;;22.53;46.21
64551;BME280;50945;44.472;-123.352;2023-07-09T02:07:22;99980.63;;;22.44;46.46
64551;BME280;50945;44.472;-123.352;2023-07-09T02:09:49;99979.75;;;22.33;46.60
64551;BME280;50945;44.472;-123.352;2023-07-09T02:12:16;99980.25;;;22.25;46.69
64551;BME280;50945;44.472;-123.352;2023-07-09T02:14:44;99986.03;;;22.13;46.93
64551;BME280;50945;44.472;-123.352;2023-07-09T02:17:12;99991.00;;;22.06;46.93
64551;BME280;50945;44.472;-123.352;2023-07-09T02:19:38;99988.19;;;22.01;47.13
64551;BME280;50945;44.472;-123.352;2023-07-09T02:22:05;99996.78;;;21.94;47.04
64551;BME280;50945;44.472;-123.352;2023-07-09T02:24:32;99997.84;;;21.88;47.14
64551;BME280;50945;44.472;-123.352;2023-07-09T02:27:00;100003.63;;;21.81;47.33
64551;BME280;50945;44.472;-123.352;2023-07-09T02:29:28;100009.16;;;21.71;47.35
64551;BME280;50945;44.472;-123.352;2023-07-09T02:31:56;100005.75;;;21.64;47.48
64551;BME280;50945;44.472;-123.352;2023-07-09T02:34:25;100012.06;;;21.54;47.62
64551;BME280;50945;44.472;-123.352;2023-07-09T02:36:53;100014.72;;;21.44;47.59
64551;BME280;50945;44.472;-123.352;2023-07-09T02:39:20;100017.72;;;21.32;47.88
64551;BME280;50945;44.472;-123.352;2023-07-09T02:41:46;100014.78;;;21.17;47.95
64551;BME280;50945;44.472;-123.352;2023-07-09T02:44:12;100022.44;;;21.04;48.09
64551;BME280;50945;44.472;-123.352;2023-07-09T02:46:38;100030.28;;;20.85;49.29
64551;BME280;50945;44.472;-123.352;2023-07-09T02:49:05;100032.41;;;20.78;48.22
64551;BME280;50945;44.472;-123.352;2023-07-09T02:51:32;100039.53;;;20.69;48.50
64551;BME280;50945;44.472;-123.352;2023-07-09T02:54:01;100030.47;;;20.57;48.65
64551;BME280;50945;44.472;-123.352;2023-07-09T02:56:27;100030.63;;;20.45;48.89
64551;BME280;50945;44.472;-123.352;2023-07-09T02:58:54;100041.00;;;20.32;48.86
64551;BME280;50945;44.472;-123.352;2023-07-09T03:01:20;100035.56;;;20.21;49.17
64551;BME280;50945;44.472;-123.352;2023-07-09T03:03:57;100045.19;;;20.13;49.04
64551;BME280;50945;44.472;-123.352;2023-07-09T03:06:25;100043.88;;;19.99;49.55
64551;BME280;50945;44.472;-123.352;2023-07-09T03:08:51;100045.44;;;19.94;49.45
64551;BME280;50945;44.472;-123.352;2023-07-09T03:11:19;100044.47;;;19.84;49.50
64551;BME280;50945;44.472;-123.352;2023-07-09T03:13:47;100055.63;;;19.72;49.75
64551;BME280;50945;44.472;-123.352;2023-07-09T03:16:14;100057.13;;;19.63;49.85
64551;BME280;50945;44.472;-123.352;2023-07-09T03:18:40;100058.53;;;19.48;50.10
64551;BME280;50945;44.472;-123.352;2023-07-09T03:21:06;100058.28;;;19.33;51.42
64551;BME280;50945;44.472;-123.352;2023-07-09T03:23:33;100061.72;;;19.23;50.45
64551;BME280;50945;44.472;-123.352;2023-07-09T03:25:58;100053.09;;;19.08;50.94
64551;BME280;50945;44.472;-123.352;2023-07-09T03:28:25;100057.97;;;19.00;50.66
64551;BME280;50945;44.472;-123.352;2023-07-09T03:30:54;100058.03;;;18.89;50.93
64551;BME280;50945;44.472;-123.352;2023-07-09T03:33:22;100061.03;;;18.75;50.96
64551;BME280;50945;44.472;-123.352;2023-07-09T03:35:50;100059.16;;;18.64;51.26
64551;BME280;50945;44.472;-123.352;2023-07-09T03:38:17;100065.91;;;18.56;51.54
64551;BME280;50945;44.472;-123.352;2023-07-09T03:40:43;100059.31;;;18.46;51.67
64551;BME280;50945;44.472;-123.352;2023-07-09T03:43:11;100062.72;;;18.36;51.75
64551;BME280;50945;44.472;-123.352;2023-07-09T03:45:38;100074.38;;;18.26;51.92
64551;BME280;50945;44.472;-123.352;2023-07-09T03:48:05;100075.84;;;18.17;51.98
64551;BME280;50945;44.472;-123.352;2023-07-09T03:50:32;100076.47;;;18.07;52.40
64551;BME280;50945;44.472;-123.352;2023-07-09T03:52:57;100070.31;;;17.93;54.56
64551;BME280;50945;44.472;-123.352;2023-07-09T03:55:24;100068.97;;;17.84;52.56
64551;BME280;50945;44.472;-123.352;2023-07-09T03:57:55;100071.00;;;17.77;52.58
64551;BME280;50945;44.472;-123.352;2023-07-09T04:00:22;100074.59;;;17.65;52.96
64551;BME280;50945;44.472;-123.352;2023-07-09T04:02:51;100078.19;;;17.54;53.12
64551;BME280;50945;44.472;-123.352;2023-07-09T04:05:17;100073.22;;;17.44;53.14
64551;BME280;50945;44.472;-123.352;2023-07-09T04:07:44;100073.22;;;17.33;53.69
64551;BME280;50945;44.472;-123.352;2023-07-09T04:10:10;100071.00;;;17.23;53.43
64551;BME280;50945;44.472;-123.352;2023-07-09T04:12:37;100075.19;;;17.14;53.51
64551;BME280;50945;44.472;-123.352;2023-07-09T04:15:04;100077.91;;;17.02;54.26
64551;BME280;50945;44.472;-123.352;2023-07-09T04:17:31;100082.06;;;16.92;54.29
64551;BME280;50945;44.472;-123.352;2023-07-09T04:19:58;100083.47;;;16.83;54.42
64551;BME280;50945;44.472;-123.352;2023-07-09T04:22:24;100086.50;;;16.75;54.37
64551;BME280;50945;44.472;-123.352;2023-07-09T04:24:51;100084.91;;;16.67;55.01
64551;BME280;50945;44.472;-123.352;2023-07-09T04:27:18;100079.97;;;16.58;55.11
64551;BME280;50945;44.472;-123.352;2023-07-09T04:29:45;100079.44;;;16.49;54.83
64551;BME280;50945;44.472;-123.352;2023-07-09T04:32:13;100084.19;;;16.42;55.28
64551;BME280;50945;44.472;-123.352;2023-07-09T04:34:39;100088.06;;;16.34;55.32
64551;BME280;50945;44.472;-123.352;2023-07-09T04:37:12;100092.81;;;16.27;56.77
64551;BME280;50945;44.472;-123.352;2023-07-09T04:39:39;100101.78;;;16.22;55.47
64551;BME280;50945;44.472;-123.352;2023-07-09T04:42:06;100105.81;;;16.20;55.97
64551;BME280;50945;44.472;-123.352;2023-07-09T04:44:36;100110.34;;;16.14;55.42
64551;BME280;50945;44.472;-123.352;2023-07-09T04:47:03;100106.59;;;16.08;55.91
64551;BME280;50945;44.472;-123.352;2023-07-09T04:49:29;100111.09;;;16.03;56.37
64551;BME280;50945;44.472;-123.352;2023-07-09T04:51:55;100111.16;;;15.96;56.26
64551;BME280;50945;44.472;-123.352;2023-07-09T04:54:25;100104.41;;;15.92;56.60
64551;BME280;50945;44.472;-123.352;2023-07-09T04:56:51;100118.03;;;15.87;56.56
64551;BME280;50945;44.472;-123.352;2023-07-09T04:59:19;100121.44;;;15.82;56.93
64551;BME280;50945;44.472;-123.352;2023-07-09T05:01:46;100120.22;;;15.78;56.69
64551;BME280;50945;44.472;-123.352;2023-07-09T05:04:12;100128.50;;;15.71;57.26
64551;BME280;50945;44.472;-123.352;2023-07-09T05:06:39;100122.81;;;15.66;57.05
64551;BME280;50945;44.472;-123.352;2023-07-09T05:09:05;100122.84;;;15.59;56.91
64551;BME280;50945;44.472;-123.352;2023-07-09T05:11:35;100123.56;;;15.55;57.38
64551;BME280;50945;44.472;-123.352;2023-07-09T05:14:03;100128.88;;;15.50;57.92
64551;BME280;50945;44.472;-123.352;2023-07-09T05:16:29;100127.66;;;15.46;57.08
64551;BME280;50945;44.472;-123.352;2023-07-09T05:18:56;100127.25;;;15.42;57.77
64551;BME280;50945;44.472;-123.352;2023-07-09T05:21:22;100120.47;;;15.38;57.55
64551;BME280;50945;44.472;-123.352;2023-07-09T05:23:48;100121.78;;;15.35;57.56
64551;BME280;50945;44.472;-123.352;2023-07-09T05:26:14;100127.72;;;15.32;57.86
64551;BME280;50945;44.472;-123.352;2023-07-09T05:28:40;100129.25;;;15.28;57.92
64551;BME280;50945;44.472;-123.352;2023-07-09T05:31:07;100123.13;;;15.26;58.22
64551;BME280;50945;44.472;-123.352;2023-07-09T05:33:33;100128.22;;;15.23;58.08
64551;BME280;50945;44.472;-123.352;2023-07-09T05:35:59;100128.22;;;15.23;58.36
64551;BME280;50945;44.472;-123.352;2023-07-09T05:38:25;100132.25;;;15.20;58.44
64551;BME280;50945;44.472;-123.352;2023-07-09T05:41:04;100131.63;;;15.18;59.72
64551;BME280;50945;44.472;-123.352;2023-07-09T05:43:30;100135.66;;;15.15;58.12
64551;BME280;50945;44.472;-123.352;2023-07-09T05:45:57;100132.50;;;15.12;58.57
64551;BME280;50945;44.472;-123.352;2023-07-09T05:48:23;100134.84;;;15.08;58.91
64551;BME280;50945;44.472;-123.352;2023-07-09T05:50:53;100135.28;;;15.05;58.80
64551;BME280;50945;44.472;-123.352;2023-07-09T05:53:23;100142.28;;;15.01;58.75
64551;BME280;50945;44.472;-123.352;2023-07-09T05:55:53;100141.03;;;14.97;59.27
64551;BME280;50945;44.472;-123.352;2023-07-09T05:58:20;100141.94;;;14.91;59.12
64551;BME280;50945;44.472;-123.352;2023-07-09T06:00:49;100147.47;;;14.84;58.92
64551;BME280;50945;44.472;-123.352;2023-07-09T06:03:18;100143.69;;;14.78;59.64
64551;BME280;50945;44.472;-123.352;2023-07-09T06:05:44;100143.47;;;14.73;59.20
64551;BME280;50945;44.472;-123.352;2023-07-09T06:08:10;100151.75;;;14.67;59.63
64551;BME280;50945;44.472;-123.352;2023-07-09T06:10:38;100152.63;;;14.60;59.70
64551;BME280;50945;44.472;-123.352;2023-07-09T06:13:07;100152.84;;;14.59;59.73
64551;BME280;50945;44.472;-123.352;2023-07-09T06:15:33;100161.09;;;14.59;59.95
64551;BME280;50945;44.472;-123.352;2023-07-09T06:18:00;100160.44;;;14.57;62.74
64551;BME280;50945;44.472;-123.352;2023-07-09T06:20:26;100158.09;;;14.54;59.51
64551;BME280;50945;44.472;-123.352;2023-07-09T06:22:52;100157.69;;;14.50;59.53
64551;BME280;50945;44.472;-123.352;2023-07-09T06:25:18;100161.94;;;14.46;59.82
64551;BME280;50945;44.472;-123.352;2023-07-09T06:27:44;100159.81;;;14.41;59.83
64551;BME280;50945;44.472;-123.352;2023-07-09T06:30:11;100164.91;;;14.38;59.97
64551;BME280;50945;44.472;-123.352;2023-07-09T06:32:37;100167.44;;;14.33;60.43
64551;BME280;50945;44.472;-123.352;2023-07-09T06:35:04;100162.38;;;14.30;60.58
64551;BME280;50945;44.472;-123.352;2023-07-09T06:37:30;100158.16;;;14.27;60.56
64551;BME280;50945;44.472;-123.352;2023-07-09T06:39:56;100147.78;;;14.22;60.87
64551;BME280;50945;44.472;-123.352;2023-07-09T06:42:22;100154.59;;;14.20;60.80
64551;BME280;50945;44.472;-123.352;2023-07-09T06:44:48;100159.03;;;14.14;60.65
64551;BME280;50945;44.472;-123.352;2023-07-09T06:47:14;100163.44;;;14.08;61.12
64551;BME280;50945;44.472;-123.352;2023-07-09T06:49:41;100159.44;;;14.04;61.27
64551;BME280;50945;44.472;-123.352;2023-07-09T06:52:07;100162.63;;;14.01;61.60
64551;BME280;50945;44.472;-123.352;2023-07-09T06:54:33;100157.78;;;13.97;61.47
64551;BME280;50945;44.472;-123.352;2023-07-09T06:56:59;100151.84;;;13.93;61.54
64551;BME280;50945;44.472;-123.352;2023-07-09T06:59:25;100153.31;;;13.89;61.85
64551;BME280;50945;44.472;-123.352;2023-07-09T07:01:51;100158.38;;;13.85;61.79
64551;BME280;50945;44.472;-123.352;2023-07-09T07:04:18;100154.19;;;13.83;62.24
64551;BME280;50945;44.472;-123.352;2023-07-09T07:06:44;100149.97;;;13.80;62.32
64551;BME280;50945;44.472;-123.352;2023-07-09T07:09:10;100157.97;;;13.75;65.99
64551;BME280;50945;44.472;-123.352;2023-07-09T07:11:36;100157.56;;;13.72;63.87
64551;BME280;50945;44.472;-123.352;2023-07-09T07:14:02;100150.38;;;13.71;61.93
64551;BME280;50945;44.472;-123.352;2023-07-09T07:16:28;100158.19;;;13.67;62.30
64551;BME280;50945;44.472;-123.352;2023-07-09T07:18:54;100150.56;;;13.62;62.68
64551;BME280;50945;44.472;-123.352;2023-07-09T07:21:20;100154.78;;;13.58;62.84
64551;BME280;50945;44.472;-123.352;2023-07-09T07:23:47;100157.75;;;13.57;62.99
64551;BME280;50945;44.472;-123.352;2023-07-09T07:26:13;100156.91;;;13.56;62.62
64551;BME280;50945;44.472;-123.352;2023-07-09T07:28:39;100161.75;;;13.54;63.18
64551;BME280;50945;44.472;-123.352;2023-07-09T07:31:08;100167.25;;;13.54;63.14
64551;BME280;50945;44.472;-123.352;2023-07-09T07:33:35;100161.34;;;13.50;63.17
64551;BME280;50945;44.472;-123.352;2023-07-09T07:36:03;100163.66;;;13.47;66.10
64551;BME280;50945;44.472;-123.352;2023-07-09T07:38:29;100162.16;;;13.44;63.13
64551;BME280;50945;44.472;-123.352;2023-07-09T07:40:56;100164.25;;;13.42;63.39
64551;BME280;50945;44.472;-123.352;2023-07-09T07:43:22;100163.00;;;13.38;63.39
64551;BME280;50945;44.472;-123.352;2023-07-09T07:45:48;100162.38;;;13.36;63.79
64551;BME280;50945;44.472;-123.352;2023-07-09T07:48:15;100160.22;;;13.31;64.04
64551;BME280;50945;44.472;-123.352;2023-07-09T07:50:41;100151.53;;;13.28;64.06
64551;BME280;50945;44.472;-123.352;2023-07-09T07:53:08;100144.56;;;13.25;63.95
64551;BME280;50945;44.472;-123.352;2023-07-09T07:55:36;100158.50;;;13.24;64.02
64551;BME280;50945;44.472;-123.352;2023-07-09T07:58:03;100161.66;;;13.21;64.47
64551;BME280;50945;44.472;-123.352;2023-07-09T08:00:30;100158.28;;;13.19;64.23
64551;BME280;50945;44.472;-123.352;2023-07-09T08:02:56;100160.59;;;13.15;64.70
64551;BME280;50945;44.472;-123.352;2023-07-09T08:05:23;100158.88;;;13.14;64.70
64551;BME280;50945;44.472;-123.352;2023-07-09T08:07:50;100153.59;;;13.12;64.58
64551;BME280;50945;44.472;-123.352;2023-07-09T08:10:16;100153.78;;;13.11;65.01
64551;BME280;50945;44.472;-123.352;2023-07-09T08:12:42;100155.06;;;13.08;64.79
64551;BME280;50945;44.472;-123.352;2023-07-09T08:15:09;100161.81;;;13.06;64.97
64551;BME280;50945;44.472;-123.352;2023-07-09T08:17:35;100168.16;;;13.06;65.34
64551;BME280;50945;44.472;-123.352;2023-07-09T08:20:01;100173.00;;;13.04;65.45
64551;BME280;50945;44.472;-123.352;2023-07-09T08:22:27;100166.00;;;13.02;65.12
64551;BME280;50945;44.472;-123.352;2023-07-09T08:24:53;100168.97;;;13.00;65.35
64551;BME280;50945;44.472;-123.352;2023-07-09T08:27:20;100169.38;;;12.97;65.63
64551;BME280;50945;44.472;-123.352;2023-07-09T08:29:46;100166.22;;;12.93;65.34
64551;BME280;50945;44.472;-123.352;2023-07-09T08:32:12;100167.44;;;12.91;66.11
64551;BME280;50945;44.472;-123.352;2023-07-09T08:34:40;100168.09;;;12.86;65.42
64551;BME280;50945;44.472;-123.352;2023-07-09T08:37:09;100163.84;;;12.84;65.57
64551;BME280;50945;44.472;-123.352;2023-07-09T08:39:36;100165.09;;;12.81;65.52
64551;BME280;50945;44.472;-123.352;2023-07-09T08:42:03;100176.06;;;12.81;65.70
64551;BME280;50945;44.472;-123.352;2023-07-09T08:49:56;100166.97;;;12.74;66.95
64551;BME280;50945;44.472;-123.352;2023-07-09T08:54:58;100161.47;;;12.74;66.21
64551;BME280;50945;44.472;-123.352;2023-07-09T08:57:33;100167.38;;;12.71;66.77
64551;BME280;50945;44.472;-123.352;2023-07-09T09:00:13;100167.97;;;12.66;66.32
64551;BME280;50945;44.472;-123.352;2023-07-09T09:05:14;100154.00;;;12.61;66.49
64551;BME280;50945;44.472;-123.352;2023-07-09T09:07:44;100164.34;;;12.59;66.72
64551;BME280;50945;44.472;-123.352;2023-07-09T09:10:14;100169.19;;;12.57;67.00
64551;BME280;50945;44.472;-123.352;2023-07-09T09:15:25;100167.28;;;12.51;66.96
64551;BME280;50945;44.472;-123.352;2023-07-09T09:17:54;100164.28;;;12.46;67.20
64551;BME280;50945;44.472;-123.352;2023-07-09T09:20:23;100155.81;;;12.41;67.08
64551;BME280;50945;44.472;-123.352;2023-07-09T09:25:31;100164.38;;;12.31;67.77
64551;BME280;50945;44.472;-123.352;2023-07-09T09:27:59;100165.19;;;12.25;67.42
64551;BME280;50945;44.472;-123.352;2023-07-09T09:30:29;100161.19;;;12.21;67.10
64551;BME280;50945;44.472;-123.352;2023-07-09T09:33:07;100159.84;;;12.16;67.81
64551;BME280;50945;44.472;-123.352;2023-07-09T09:35:36;100164.25;;;12.11;67.36
64551;BME280;50945;44.472;-123.352;2023-07-09T09:38:15;100170.13;;;12.08;68.25
64551;BME280;50945;44.472;-123.352;2023-07-09T09:40:42;100173.28;;;12.05;67.73
64551;BME280;50945;44.472;-123.352;2023-07-09T09:43:16;100165.44;;;12.02;68.08
64551;BME280;50945;44.472;-123.352;2023-07-09T09:45:46;100168.59;;;11.98;68.10
64551;BME280;50945;44.472;-123.352;2023-07-09T09:48:28;100165.19;;;11.96;68.57
64551;BME280;50945;44.472;-123.352;2023-07-09T09:50:55;100157.19;;;11.95;68.07
64551;BME280;50945;44.472;-123.352;2023-07-09T09:53:27;100156.53;;;11.93;68.00
64551;BME280;50945;44.472;-123.352;2023-07-09T09:55:55;100166.16;;;11.89;68.42
64551;BME280;50945;44.472;-123.352;2023-07-09T09:58:29;100164.84;;;11.85;68.25
64551;BME280;50945;44.472;-123.352;2023-07-09T10:00:58;100163.56;;;11.80;68.65
64551;BME280;50945;44.472;-123.352;2023-07-09T10:03:37;100171.78;;;11.80;69.24
64551;BME280;50945;44.472;-123.352;2023-07-09T10:06:17;100168.84;;;11.82;70.32
64551;BME280;50945;44.472;-123.352;2023-07-09T10:11:47;100175.41;;;11.88;71.22
64551;BME280;50945;44.472;-123.352;2023-07-09T10:17:38;100180.63;;;11.83;69.50
64551;BME280;50945;44.472;-123.352;2023-07-09T10:28:43;100189.00;;;11.74;71.03
64551;BME280;50945;44.472;-123.352;2023-07-09T10:31:17;100202.88;;;11.73;69.78
64551;BME280;50945;44.472;-123.352;2023-07-09T10:34:07;100199.97;;;11.74;69.56
64551;BME280;50945;44.472;-123.352;2023-07-09T10:39:37;100196.16;;;11.75;70.18
64551;BME280;50945;44.472;-123.352;2023-07-09T10:42:33;100188.78;;;11.76;68.89
64551;BME280;50945;44.472;-123.352;2023-07-09T10:45:02;100195.50;;;11.73;69.66
64551;BME280;50945;44.472;-123.352;2023-07-09T10:47:33;100199.09;;;11.74;69.60
64551;BME280;50945;44.472;-123.352;2023-07-09T10:50:03;100199.28;;;11.72;69.57
64551;BME280;50945;44.472;-123.352;2023-07-09T10:52:40;100190.16;;;11.65;69.77
64551;BME280;50945;44.472;-123.352;2023-07-09T10:55:44;100195.38;;;11.60;72.18
64551;BME280;50945;44.472;-123.352;2023-07-09T11:01:28;100198.63;;;11.49;69.98
64551;BME280;50945;44.472;-123.352;2023-07-09T11:04:01;100199.25;;;11.44;69.54
64551;BME280;50945;44.472;-123.352;2023-07-09T11:06:45;100199.81;;;11.39;70.47
64551;BME280;50945;44.472;-123.352;2023-07-09T11:09:34;100186.69;;;11.35;71.99
64551;BME280;50945;44.472;-123.352;2023-07-09T11:12:06;100201.63;;;11.32;70.20
64551;BME280;50945;44.472;-123.352;2023-07-09T11:14:41;100197.00;;;11.33;70.68
64551;BME280;50945;44.472;-123.352;2023-07-09T11:17:18;100188.59;;;11.34;70.73
64551;BME280;50945;44.472;-123.352;2023-07-09T11:19:46;100191.53;;;11.33;70.12
64551;BME280;50945;44.472;-123.352;2023-07-09T11:22:21;100196.53;;;11.29;70.93
64551;BME280;50945;44.472;-123.352;2023-07-09T11:27:24;100186.38;;;11.23;70.08
64551;BME280;50945;44.472;-123.352;2023-07-09T11:30:03;100188.66;;;11.19;71.20
64551;BME280;50945;44.472;-123.352;2023-07-09T11:32:46;100197.22;;;11.16;71.28
64551;BME280;50945;44.472;-123.352;2023-07-09T11:35:25;100187.31;;;11.15;71.07
64551;BME280;50945;44.472;-123.352;2023-07-09T11:37:52;100181.19;;;11.13;70.36
64551;BME280;50945;44.472;-123.352;2023-07-09T11:40:22;100185.56;;;11.08;70.81
64551;BME280;50945;44.472;-123.352;2023-07-09T11:42:54;100195.19;;;11.03;70.89
64551;BME280;50945;44.472;-123.352;2023-07-09T11:48:13;100203.31;;;10.97;71.81
64551;BME280;50945;44.472;-123.352;2023-07-09T11:50:48;100197.56;;;10.92;71.45
64551;BME280;50945;44.472;-123.352;2023-07-09T11:53:36;100194.38;;;10.88;72.50
64551;BME280;50945;44.472;-123.352;2023-07-09T11:56:04;100192.88;;;10.86;71.75
64551;BME280;50945;44.472;-123.352;2023-07-09T11:58:33;100195.59;;;10.86;71.51
64551;BME280;50945;44.472;-123.352;2023-07-09T12:01:00;100200.38;;;10.83;72.12
64551;BME280;50945;44.472;-123.352;2023-07-09T12:03:34;100194.28;;;10.81;72.05
64551;BME280;50945;44.472;-123.352;2023-07-09T12:06:28;100200.59;;;10.82;74.07
64551;BME280;50945;44.472;-123.352;2023-07-09T12:08:56;100197.41;;;10.78;72.20
64551;BME280;50945;44.472;-123.352;2023-07-09T12:11:30;100199.09;;;10.79;72.60
64551;BME280;50945;44.472;-123.352;2023-07-09T12:14:08;100196.16;;;10.81;72.54
64551;BME280;50945;44.472;-123.352;2023-07-09T12:16:45;100197.41;;;10.78;72.74
64551;BME280;50945;44.472;-123.352;2023-07-09T12:19:14;100199.09;;;10.79;72.35
64551;BME280;50945;44.472;-123.352;2023-07-09T12:21:43;100206.25;;;10.80;72.29
64551;BME280;50945;44.472;-123.352;2023-07-09T12:24:22;100209.66;;;10.82;73.04
64551;BME280;50945;44.472;-123.352;2023-07-09T12:26:56;100203.34;;;10.82;72.74
64551;BME280;50945;44.472;-123.352;2023-07-09T12:29:28;100205.03;;;10.83;72.55
64551;BME280;50945;44.472;-123.352;2023-07-09T12:32:02;100206.44;;;10.79;71.96
64551;BME280;50945;44.472;-123.352;2023-07-09T12:34:31;100218.13;;;10.73;71.75
64551;BME280;50945;44.472;-123.352;2023-07-09T12:36:57;100216.16;;;10.67;71.69
64551;BME280;50945;44.472;-123.352;2023-07-09T12:39:26;100200.50;;;10.60;71.76
64551;BME280;50945;44.472;-123.352;2023-07-09T12:41:59;100202.59;;;10.58;72.03
64551;BME280;50945;44.472;-123.352;2023-07-09T12:44:26;100205.50;;;10.57;72.24
64551;BME280;50945;44.472;-123.352;2023-07-09T12:46:54;100204.66;;;10.56;71.54
64551;BME280;50945;44.472;-123.352;2023-07-09T12:52:00;100207.88;;;10.60;72.02
64551;BME280;50945;44.472;-123.352;2023-07-09T12:54:29;100208.34;;;10.63;72.27
64551;BME280;50945;44.472;-123.352;2023-07-09T12:56:58;100208.81;;;10.67;72.62
64551;BME280;50945;44.472;-123.352;2023-07-09T12:59:27;100198.44;;;10.77;72.32
64551;BME280;50945;44.472;-123.352;2023-07-09T13:02:27;100203.88;;;10.92;74.90
64551;BME280;50945;44.472;-123.352;2023-07-09T13:05:02;100210.56;;;11.04;72.21
64551;BME280;50945;44.472;-123.352;2023-07-09T13:07:35;100214.41;;;11.10;71.89
64551;BME280;50945;44.472;-123.352;2023-07-09T13:10:24;100206.88;;;11.12;74.17
64551;BME280;50945;44.472;-123.352;2023-07-09T13:13:04;100212.34;;;11.12;73.08
64551;BME280;50945;44.472;-123.352;2023-07-09T13:18:05;100217.13;;;11.10;71.92
64551;BME280;50945;44.472;-123.352;2023-07-09T13:20:33;100219.88;;;11.10;72.18
64551;BME280;50945;44.472;-123.352;2023-07-09T13:23:00;100227.53;;;11.15;72.38
64551;BME280;50945;44.472;-123.352;2023-07-09T13:25:27;100226.97;;;11.19;72.30
64551;BME280;50945;44.472;-123.352;2023-07-09T13:27:54;100230.34;;;11.21;72.26